Latest Weather Observations for Cobar

IDN60801

Issued at 3:35 pm EDT Sunday 23 November 2014 (issued every 30 minutes, with the page automatically refreshed every 10 minutes)

About weather observations | Map of weather stations | Latest weather observations for NSW | Other Formats
Station Details ID: 048027 Name: COBAR MO Lat: -31.48 Lon: 145.83 Height: 260.0 m
Data from the previous 72 hours. | See also: Recent months at Cobar
Date/Time
EDT
Temp
°C
App
Temp
°C
Dew
Point
Rel
Hum
%
Delta-T
°C
Wind Press
QNH
hPa
Press
MSL
hPa
Rain
since 9 am
mm
Dir
 
Spd
km/h
Gust
km/h
Spd
kts
Gust
kts
23/03:00pm 43.1 38.7 0.1 7 22.6 WSW 13 20 7 11 1008.4 1007.3 0.0
23/02:30pm 44.0 38.2 -1.6 6 23.5 NW 19 28 10 15 1009.1 - 0.0
23/02:00pm 42.4 36.5 -0.7 7 22.3 W 20 32 11 17 1009.5 - 0.0
23/01:30pm 43.1 35.7 -1.0 6 22.8 WNW 28 35 15 19 1010.0 - 0.0
23/01:00pm 41.1 33.2 -5.1 5 22.2 N 28 39 15 21 1010.3 1010.0 0.0
23/12:44pm 43.1 35.2 -4.6 5 23.4 NW 28 50 15 27 1010.5 - 0.0
23/12:30pm 42.5 36.1 -4.5 5 23.0 NW 20 33 11 18 1010.6 - 0.0
23/12:00pm 41.1 33.9 -5.1 5 22.2 N 24 35 13 19 1011.1 1010.0 0.0
23/11:30am 41.1 33.4 -6.5 5 22.4 N 26 35 14 19 1011.3 - 0.0
23/11:17am 40.6 32.5 -6.5 5 22.1 N 28 46 15 25 1011.3 - 0.0
23/11:00am 40.4 32.8 -6.0 5 21.9 NNW 26 43 14 23 1011.4 - 0.0
23/10:30am 38.7 31.4 -3.2 7 20.4 N 26 37 14 20 1011.6 - 0.0
23/10:00am 35.2 29.9 -0.3 10 17.7 NNE 17 39 9 21 1011.5 1010.0 0.0
23/09:30am 37.2 29.5 -2.8 8 19.4 N 28 33 15 18 1011.3 - 0.0
23/09:00am 35.2 29.9 -0.3 10 17.7 NNE 17 22 9 12 1011.1 1010.0 0.0
23/08:30am 33.6 27.9 -0.6 11 16.8 NNE 19 28 10 15 1010.8 - 0.0
23/08:00am 32.4 27.0 1.0 13 15.7 NE 19 22 10 12 1010.6 - 0.0
23/07:30am 30.9 25.5 1.5 15 14.7 NE 19 26 10 14 1010.5 - 0.0
23/07:00am 27.5 23.7 3.7 21 12.1 E 13 17 7 9 1010.4 1008.3 0.0
23/06:30am 28.3 23.8 2.1 18 13.0 ENE 15 17 8 9 1009.9 - 0.0
23/06:00am 27.5 23.7 3.7 21 12.1 E 13 15 7 8 1009.5 1008.3 0.0
23/05:30am 28.0 24.2 4.0 21 12.3 E 13 17 7 9 1009.1 - 0.0
23/05:00am 28.5 25.2 4.3 21 12.5 ESE 11 17 6 9 1009.1 - 0.0
23/04:30am 29.2 25.9 4.4 20 12.9 E 11 15 6 8 1008.8 - 0.0
23/04:00am 30.0 25.6 2.9 17 13.8 ENE 15 20 8 11 1009.2 1007.3 0.0
23/03:30am 30.7 26.8 3.3 17 14.1 E 13 20 7 11 1009.1 - 0.0
23/03:00am 30.0 25.6 2.9 17 13.8 ENE 15 19 8 10 1008.4 1007.3 0.0
23/02:30am 30.5 26.2 3.3 17 14.0 NE 15 20 8 11 1008.8 - 0.0
23/02:00am 30.9 25.9 3.4 17 14.2 NE 19 24 10 13 1009.0 - 0.0
23/01:30am 30.6 26.5 4.2 18 13.8 NE 15 20 8 11 1009.2 - 0.0
23/01:00am 33.0 28.5 4.4 16 15.2 ENE 17 20 9 11 1009.4 1008.5 0.0
23/12:30am 31.9 27.8 4.5 18 14.5 ENE 15 20 8 11 1009.6 - 0.0
23/12:00am 33.0 28.5 4.4 16 15.2 ENE 17 22 9 12 1009.7 1008.5 0.0
 
Date/Time
EDT
Temp
°C
App
Temp
°C
Dew
Point
Rel
Hum
%
Delta-T
°C
Wind Press
QNH
hPa
Press
MSL
hPa
Rain
since 9 am
mm
Dir
 
Spd
km/h
Gust
km/h
Spd
kts
Gust
kts
22/11:30pm 32.7 28.2 4.4 17 15.0 ENE 17 20 9 11 1009.9 - 0.0
22/11:00pm 33.2 29.2 5.1 17 15.1 E 15 17 8 9 1010.0 - 0.0
22/10:30pm 32.6 29.1 5.5 18 14.6 ENE 13 15 7 8 1010.3 - 0.0
22/10:00pm 33.8 32.5 9.3 22 14.1 ESE 6 11 3 6 1010.2 1008.7 0.0
22/09:30pm 32.9 31.3 8.9 22 13.7 E 7 9 4 5 1010.1 - 0.0
22/09:00pm 33.8 32.5 9.3 22 14.1 ESE 6 7 3 4 1009.9 1008.7 0.0
22/08:30pm 34.7 33.0 7.5 18 15.3 SE 6 9 3 5 1009.6 - 0.0
22/08:00pm 36.1 33.9 6.2 16 16.6 SE 7 11 4 6 1009.3 - 0.0
22/07:30pm 37.0 36.4 7.4 16 16.8 CALM 0 0 0 0 1009.2 - 0.0
22/07:00pm 38.4 35.2 5.1 13 18.4 SSW 11 15 6 8 1009.1 1007.7 0.0
22/06:30pm 38.2 35.4 5.0 13 18.3 W 9 15 5 8 1009.0 - 0.0
22/06:00pm 38.4 35.2 5.1 13 18.4 SSW 11 19 6 10 1008.9 1007.7 0.0
22/05:30pm 39.4 35.6 4.1 11 19.3 WSW 13 17 7 9 1008.9 - 0.0
22/05:00pm 39.3 35.3 3.1 10 19.5 SSW 13 20 7 11 1008.8 - 0.0
22/04:30pm 39.7 35.9 3.7 11 19.6 WNW 13 20 7 11 1009.0 - 0.0
22/04:00pm 39.3 34.3 3.4 11 19.4 WSW 19 28 10 15 1009.0 1009.1 0.0
22/03:30pm 39.4 34.1 2.0 10 19.8 SW 19 32 10 17 1009.7 - 0.0
22/03:00pm 39.3 34.6 3.4 11 19.4 W 17 32 9 17 1010.2 1009.1 0.0
22/02:30pm 38.3 33.1 2.4 11 19.0 W 19 28 10 15 1010.7 - 0.0
22/02:00pm 38.4 34.7 2.3 10 19.1 W 11 24 6 13 1011.0 - 0.0
22/01:30pm 37.7 34.1 2.9 11 18.5 W 11 24 6 13 1011.3 - 0.0
22/01:00pm 36.0 31.9 2.2 12 17.6 W 13 19 7 10 1011.6 1010.8 0.0
22/12:30pm 36.8 32.0 2.6 12 18.0 W 17 26 9 14 1011.8 - 0.0
22/12:00pm 36.0 31.9 2.2 12 17.6 W 13 24 7 13 1011.9 1010.8 0.0
22/11:30am 35.6 32.3 4.7 14 16.7 SSW 11 17 6 9 1011.8 - 0.0
22/11:00am 34.8 30.6 4.0 14 16.4 N 15 24 8 13 1012.2 - 0.0
22/10:30am 33.8 30.3 5.3 17 15.4 NNW 13 26 7 14 1012.6 - 0.0
22/10:00am 31.0 26.2 4.6 19 13.9 NE 19 20 10 11 1012.6 1011.6 0.0
22/09:30am 32.4 27.7 5.1 18 14.6 NE 19 26 10 14 1012.7 - 0.0
22/09:00am 31.0 26.2 4.6 19 13.9 NE 19 24 10 13 1012.8 1011.6 0.0
22/08:30am 29.9 26.0 5.4 21 13.0 ENE 15 20 8 11 1012.7 - 0.0
22/08:00am 28.0 23.4 5.6 24 11.8 ENE 19 24 10 13 1012.6 - 0.0
22/07:30am 26.1 22.2 5.2 26 10.8 ENE 15 20 8 11 1012.3 - 0.0
22/07:00am 21.9 18.6 6.3 36 8.0 E 13 19 7 10 1011.9 1010.3 0.0
22/06:30am 22.5 19.0 5.6 33 8.6 E 13 17 7 9 1011.6 - 0.0
22/06:00am 21.9 18.6 6.3 36 8.0 E 13 15 7 8 1011.4 1010.3 0.0
22/05:30am 22.1 18.7 6.1 35 8.2 E 13 17 7 9 1011.0 - 0.0
22/05:00am 22.7 19.3 5.9 33 8.6 E 13 15 7 8 1010.8 - 0.0
22/04:30am 22.9 19.5 6.0 33 8.7 E 13 17 7 9 1010.7 - 0.0
22/04:00am 23.6 21.0 6.3 32 9.0 SE 9 11 5 6 1010.7 1009.7 0.0
22/03:30am 22.5 20.0 6.7 36 8.2 ESE 9 13 5 7 1010.8 - 0.0
22/03:00am 23.6 21.0 6.3 32 9.0 SE 9 11 5 6 1010.8 1009.7 0.0
22/02:30am 23.7 21.2 6.4 32 9.0 SE 9 13 5 7 1010.9 - 0.0
22/02:00am 24.0 21.4 6.3 32 9.2 SSE 9 11 5 6 1011.0 - 0.0
22/01:30am 24.6 21.6 5.9 30 9.7 S 11 15 6 8 1011.3 - 0.0
22/01:00am 25.8 23.8 7.3 30 9.9 SSW 7 11 4 6 1011.6 1011.0 0.0
22/12:30am 25.2 22.7 6.6 30 9.8 SSW 9 11 5 6 1011.9 - 0.0
22/12:00am 25.8 23.8 7.3 30 9.9 SSW 7 9 4 5 1012.1 1011.0 0.0
 
Date/Time
EDT
Temp
°C
App
Temp
°C
Dew
Point
Rel
Hum
%
Delta-T
°C
Wind Press
QNH
hPa
Press
MSL
hPa
Rain
since 9 am
mm
Dir
 
Spd
km/h
Gust
km/h
Spd
kts
Gust
kts
21/11:30pm 26.3 24.0 7.3 30 10.2 SSW 9 9 5 5 1012.1 - 0.0
21/11:00pm 26.8 24.5 7.3 29 10.5 SSW 9 11 5 6 1012.0 - 0.0
21/10:30pm 26.9 25.8 9.8 34 9.6 SSW 6 7 3 4 1011.9 - 0.0
21/10:00pm 29.5 26.4 5.6 22 12.7 SW 11 11 6 6 1011.6 1009.9 0.0
21/09:30pm 28.3 25.8 6.7 25 11.6 SW 9 11 5 6 1011.4 - 0.0
21/09:00pm 29.5 26.4 5.6 22 12.7 SW 11 15 6 8 1011.0 1009.9 0.0
21/08:30pm 30.0 27.2 5.3 21 13.1 SW 9 13 5 7 1010.8 - 0.0
21/08:00pm 31.7 27.4 3.3 16 14.7 SW 15 19 8 10 1010.6 - 0.0
21/07:30pm 32.8 28.5 3.2 15 15.4 WSW 15 20 8 11 1010.2 - 0.0
21/07:00pm 34.3 29.1 3.7 14 16.2 SW 20 26 11 14 1009.8 1008.0 0.0
21/06:30pm 33.8 27.4 3.2 14 16.0 SW 26 35 14 19 1009.5 - 0.0
21/06:00pm 34.3 29.1 3.7 14 16.2 SW 20 32 11 17 1009.2 1008.0 0.0
21/05:30pm 34.3 29.4 5.1 16 15.8 W 20 35 11 19 1009.1 - 0.0
21/05:00pm 34.0 29.0 4.4 15 15.8 WSW 20 33 11 18 1009.2 - 0.0
21/04:30pm 34.9 29.5 4.6 15 16.3 WSW 22 32 12 17 1009.3 - 0.0
21/04:00pm 34.4 29.8 5.6 16 15.7 W 19 37 10 20 1009.6 1009.0 0.0
21/03:30pm 34.8 29.8 4.8 15 16.2 W 20 26 11 14 1009.8 - 0.0
21/03:00pm 34.4 29.6 5.6 16 15.7 W 20 30 11 16 1010.1 1009.0 0.0
21/02:30pm 33.6 28.9 5.9 18 15.1 SW 20 30 11 16 1010.4 - 0.0
21/02:00pm 33.0 29.9 7.3 20 14.3 WSW 13 17 7 9 1010.7 - 0.0
21/01:30pm 33.9 28.3 7.2 19 14.9 W 26 33 14 18 1011.0 - 0.0
21/01:00pm 32.3 28.0 7.2 21 13.9 WSW 19 39 10 21 1011.2 1010.3 0.0
21/12:30pm 32.9 28.6 7.7 21 14.1 SW 20 33 11 18 1011.3 - 0.0
21/12:00pm 32.3 28.0 7.2 21 13.9 WSW 19 28 10 15 1011.4 1010.3 0.0
21/11:30am 30.8 27.0 7.7 23 12.8 SW 17 30 9 16 1011.6 - 0.0
21/11:00am 30.5 27.8 9.1 26 12.1 SW 13 20 7 11 1011.6 - 0.0
21/10:30am 29.7 26.7 9.4 28 11.5 SW 15 26 8 14 1011.8 - 0.0
21/10:00am 27.4 24.9 9.8 33 9.9 SSW 13 26 7 14 1011.8 1010.6 0.0
21/09:30am 27.7 24.8 9.8 32 10.1 SSW 15 22 8 12 1011.7 - 0.0
21/09:00am 27.4 24.9 9.8 33 9.9 SSW 13 22 7 12 1011.7 1010.6 0.0
21/08:30am 26.6 23.3 9.6 34 9.5 SSW 17 24 9 13 1011.6 - 0.0
21/08:00am 25.6 23.2 9.9 37 8.8 SSW 13 19 7 10 1011.2 - 0.0
21/07:30am 24.0 21.2 10.0 41 7.8 SSW 15 24 8 13 1010.8 - 0.0
21/07:00am 20.8 19.0 9.6 48 6.1 WSW 9 20 5 11 1010.7 1008.5 0.0
21/06:30am 20.7 18.9 9.4 48 6.1 WSW 9 13 5 7 1010.1 - 0.0
21/06:00am 20.8 19.0 9.6 48 6.1 WSW 9 9 5 5 1009.7 1008.5 0.0
21/05:30am 21.3 19.9 9.5 47 6.4 WSW 7 9 4 5 1009.2 - 0.0
21/05:00am 21.3 19.5 9.5 47 6.4 SSW 9 9 5 5 1009.0 - 0.0
21/04:30am 22.3 20.9 9.7 44 6.9 SSW 7 11 4 6 1008.9 - 0.0
21/04:00am 23.9 21.4 8.1 36 8.5 SW 11 15 6 8 1009.0 1007.5 0.0
21/03:30am 22.9 20.4 8.4 39 7.8 SW 11 15 6 8 1009.0 - 0.0
21/03:00am 23.9 21.4 8.1 36 8.5 SW 11 17 6 9 1008.7 1007.5 0.0
21/02:30am 24.7 22.0 7.5 33 9.2 SW 11 17 6 9 1008.8 - 0.0
21/02:00am 25.6 21.5 6.2 29 10.2 SW 17 24 9 13 1008.7 - 0.0
21/01:30am 26.8 22.7 4.6 24 11.4 SW 15 20 8 11 1008.6 - 0.0
21/01:00am 29.2 26.0 0.7 16 13.9 SW 7 22 4 12 1008.4 1007.4 0.0
21/12:30am 28.9 24.9 0.4 16 13.8 WSW 11 13 6 7 1008.6 - 0.0
21/12:00am 29.2 26.0 0.7 16 13.9 SW 7 9 4 5 1008.6 1007.4 0.0
 
Date/Time
EDT
Temp
°C
App
Temp
°C
Dew
Point
Rel
Hum
%
Delta-T
°C
Wind Press
QNH
hPa
Press
MSL
hPa
Rain
since 9 am
mm
Dir
 
Spd
km/h
Gust
km/h
Spd
kts
Gust
kts
20/11:30pm 30.2 26.5 0.2 14 14.6 SW 9 11 5 6 1008.7 - 0.0
20/11:00pm 31.6 26.3 -3.5 10 16.2 W 15 22 8 12 1009.1 - 0.0
20/10:30pm 32.0 25.3 -8.3 7 17.2 W 20 30 11 16 1009.4 - 0.0
20/10:00pm 30.4 26.7 -2.9 11 15.4 NNW 7 11 4 6 1008.9 1007.1 0.0
20/09:30pm 30.2 26.4 -0.6 13 14.8 NNW 9 9 5 5 1008.4 - 0.0
20/09:00pm 30.4 26.7 -2.9 11 15.4 NNW 7 9 4 5 1008.2 1007.1 0.0
20/08:30pm 31.1 26.8 -4.5 10 16.1 NNW 9 9 5 5 1008.1 - 0.0
20/08:00pm 32.5 27.6 -6.9 7 17.3 NNW 11 13 6 7 1007.9 - 0.0
20/07:30pm 34.0 28.0 -10.9 5 18.6 NNW 15 20 8 11 1007.7 - 0.0
20/07:00pm 35.3 28.4 -13.2 4 19.7 NW 19 24 10 13 1007.5 1006.2 0.0
20/06:30pm 35.1 28.1 -11.4 4 19.3 NNW 20 28 11 15 1007.4 - 0.0
20/06:00pm 35.3 28.4 -13.2 4 19.7 NW 19 30 10 16 1007.3 1006.2 0.0
20/05:30pm 36.5 30.1 -12.1 4 20.2 NNW 17 24 9 13 1007.3 - 0.0
20/05:00pm 37.0 29.6 -12.1 4 20.5 NW 22 37 12 20 1007.4 - 0.0
20/04:30pm 35.7 30.2 -10.0 5 19.5 W 13 20 7 11 1007.5 - 0.0
20/04:00pm 36.6 31.1 -9.8 5 20.1 WNW 13 22 7 12 1007.8 1007.5 0.0

Other Formats:

Comma delimited format used in spreadsheet applications
http://www.bom.gov.au/fwo/IDN60801/IDN60801.94711.axf

JavaScript Object Notation format (JSON) in row-major order
http://www.bom.gov.au/fwo/IDN60801/IDN60801.94711.json